Accueil
METAR-TAF:

METAR-TAF

Aéroports :

Aéroport de Londres-Heathrow

Londres-Heathrow, Angleterre

latitude: 51-29N, longitude: 000-27W, altitude: 24 m

Observation

Le bulletin a été fait il y a 23 minutes, à 10:50 UTC
Vent 3 kt de direction variable
Température 11°C
Humidité 40%
Pression 1025 hPa
Visibilité 10 km ou plus

METAR: EGLL 181050Z AUTO VRB03KT 9999 NCD 11/M02 Q1025 NOSIG

Heure: 12:13 (11:13 UTC)

Prévision

Le bulletin a été fait il y a 6 heures et 7 minutes, à 05:06 UTC
Prévision valable du 18 à 06 UTC au 19 à 12 UTC
Vent 3 kt de nord/nord-est
Visibilité 10 km ou plus
pas de nuages en-dessous de 1500 mètres et pas de cumulonimbus.
Probabilité 30%
du 19 à 04 UTC au 19 à 08 UTC
Visibilité: 8000 m

TAF: EGLL 180506Z 1806/1912 03003KT CAVOK PROB30 1904/1908 8000

Observations et prévisions météorologiques de plus de 4000 aéroports (messages METAR et TAF).

Les stations disponibles sont représentées par des disques jaunes et rouges sur la carte.

Passer la souris dessus pour voir le nom de la station.

Cliquer dessus pour voir les observations et prévisions météorologiques.

Pour changer de carte: cliquez sur les boutons verts avec une croix noire pour zoomer, sur le bouton vert avec un tiret pour effectuer un zoom arrière, ou sur les flèches vertes pour les cartes adjacentes.


METAR-TAF: